Wing, Illinois
Current Conditions -  °F | °C
As of 7:55 AM on Friday 31 Oct 2014 (Local Time) from KPNT Reporting Station
Overcast Overcast  
Wind Chill: 25°   Ceiling: 7500
Heat Index: 37°   Visibility: 10mi
Dew Point: 27°   Wind: 24mph
Humidity: 67%   Direction: 330°NNW
Pressure: 30.15"   Gusts: 32mph
Location:  40.7521°N, 88.412°W
Report Text: KPNT 311255Z AUTO 33021G28KT 10SM OVC075 03/M03 A3015 RMK AO2 T00271028
Loading
Personal Weather Stations






























Interactive Weather Map
Tropical Storm Tracking
New forecast layout! Learn more

10-Day Weather Forecast

Advertisements
Track Severe Weather on mobile